sensor_id;sensor_type;location;lat;lon;timestamp;P1;durP1;ratioP1;P2;durP2;ratioP2
249;SDS011;109;19.806;-70.704;2022-10-31T00:00:13;12.23;;;3.77;;
249;SDS011;109;19.806;-70.704;2022-10-31T00:02:41;12.37;;;3.27;;
249;SDS011;109;19.806;-70.704;2022-10-31T00:05:08;6.80;;;3.17;;
249;SDS011;109;19.806;-70.704;2022-10-31T00:07:34;7.17;;;2.90;;
249;SDS011;109;19.806;-70.704;2022-10-31T00:10:00;8.03;;;3.00;;
249;SDS011;109;19.806;-70.704;2022-10-31T00:12:27;10.67;;;3.80;;
249;SDS011;109;19.806;-70.704;2022-10-31T00:14:54;8.13;;;3.30;;
249;SDS011;109;19.806;-70.704;2022-10-31T00:17:20;10.43;;;3.27;;
249;SDS011;109;19.806;-70.704;2022-10-31T00:19:46;7.20;;;3.00;;
249;SDS011;109;19.806;-70.704;2022-10-31T00:22:13;7.53;;;3.30;;
249;SDS011;109;19.806;-70.704;2022-10-31T00:24:39;6.03;;;3.23;;
249;SDS011;109;19.806;-70.704;2022-10-31T00:27:05;8.80;;;3.27;;
249;SDS011;109;19.806;-70.704;2022-10-31T00:29:32;9.57;;;3.83;;
249;SDS011;109;19.806;-70.704;2022-10-31T00:31:59;7.87;;;3.07;;
249;SDS011;109;19.806;-70.704;2022-10-31T00:34:25;31.13;;;3.70;;
249;SDS011;109;19.806;-70.704;2022-10-31T00:36:59;8.47;;;3.40;;
249;SDS011;109;19.806;-70.704;2022-10-31T00:39:25;5.47;;;2.97;;
249;SDS011;109;19.806;-70.704;2022-10-31T00:41:58;10.10;;;3.63;;
249;SDS011;109;19.806;-70.704;2022-10-31T00:44:25;8.93;;;3.47;;
249;SDS011;109;19.806;-70.704;2022-10-31T00:46:58;10.40;;;3.07;;
249;SDS011;109;19.806;-70.704;2022-10-31T00:49:24;6.33;;;3.20;;
249;SDS011;109;19.806;-70.704;2022-10-31T00:51:57;6.07;;;3.60;;
249;SDS011;109;19.806;-70.704;2022-10-31T00:54:24;6.30;;;3.03;;
249;SDS011;109;19.806;-70.704;2022-10-31T00:56:57;9.30;;;3.33;;
249;SDS011;109;19.806;-70.704;2022-10-31T00:59:25;9.60;;;2.80;;
249;SDS011;109;19.806;-70.704;2022-10-31T01:01:57;13.30;;;3.10;;
249;SDS011;109;19.806;-70.704;2022-10-31T01:04:25;6.50;;;3.13;;
249;SDS011;109;19.806;-70.704;2022-10-31T01:06:57;17.27;;;4.20;;
249;SDS011;109;19.806;-70.704;2022-10-31T01:09:24;6.93;;;3.00;;
249;SDS011;109;19.806;-70.704;2022-10-31T01:11:58;6.90;;;3.00;;
249;SDS011;109;19.806;-70.704;2022-10-31T01:14:24;9.60;;;3.30;;
249;SDS011;109;19.806;-70.704;2022-10-31T01:16:57;10.80;;;3.10;;
249;SDS011;109;19.806;-70.704;2022-10-31T01:19:24;8.77;;;3.30;;
249;SDS011;109;19.806;-70.704;2022-10-31T01:21:56;12.23;;;3.57;;
249;SDS011;109;19.806;-70.704;2022-10-31T01:24:45;7.60;;;3.20;;
249;SDS011;109;19.806;-70.704;2022-10-31T01:27:18;6.10;;;3.20;;
249;SDS011;109;19.806;-70.704;2022-10-31T01:29:58;7.97;;;3.03;;
249;SDS011;109;19.806;-70.704;2022-10-31T01:32:38;5.20;;;2.67;;
249;SDS011;109;19.806;-70.704;2022-10-31T01:35:11;10.70;;;3.07;;
249;SDS011;109;19.806;-70.704;2022-10-31T01:37:50;16.37;;;3.43;;
249;SDS011;109;19.806;-70.704;2022-10-31T01:40:17;8.70;;;3.00;;
249;SDS011;109;19.806;-70.704;2022-10-31T01:42:58;14.10;;;3.60;;
249;SDS011;109;19.806;-70.704;2022-10-31T01:45:24;8.10;;;3.20;;
249;SDS011;109;19.806;-70.704;2022-10-31T01:48:03;17.40;;;3.80;;
249;SDS011;109;19.806;-70.704;2022-10-31T01:50:31;8.63;;;3.10;;
249;SDS011;109;19.806;-70.704;2022-10-31T01:53:17;10.13;;;3.60;;
249;SDS011;109;19.806;-70.704;2022-10-31T01:55:44;9.40;;;3.23;;
249;SDS011;109;19.806;-70.704;2022-10-31T01:58:27;7.07;;;3.27;;
249;SDS011;109;19.806;-70.704;2022-10-31T02:01:03;5.93;;;3.50;;
249;SDS011;109;19.806;-70.704;2022-10-31T02:03:44;7.73;;;3.60;;
249;SDS011;109;19.806;-70.704;2022-10-31T02:06:59;13.40;;;4.07;;
249;SDS011;109;19.806;-70.704;2022-10-31T02:09:29;12.40;;;4.87;;
249;SDS011;109;19.806;-70.704;2022-10-31T02:12:04;10.90;;;5.37;;
249;SDS011;109;19.806;-70.704;2022-10-31T02:14:46;15.47;;;5.10;;
249;SDS011;109;19.806;-70.704;2022-10-31T02:17:26;33.53;;;7.13;;
249;SDS011;109;19.806;-70.704;2022-10-31T02:20:14;11.27;;;6.30;;
249;SDS011;109;19.806;-70.704;2022-10-31T02:29:16;14.93;;;7.57;;
249;SDS011;109;19.806;-70.704;2022-10-31T02:32:00;10.53;;;7.50;;
249;SDS011;109;19.806;-70.704;2022-10-31T02:37:50;9.97;;;8.70;;
249;SDS011;109;19.806;-70.704;2022-10-31T02:40:35;11.13;;;8.27;;
249;SDS011;109;19.806;-70.704;2022-10-31T02:49:23;12.00;;;8.83;;
249;SDS011;109;19.806;-70.704;2022-10-31T02:52:27;13.77;;;8.53;;
249;SDS011;109;19.806;-70.704;2022-10-31T02:55:10;9.97;;;8.13;;
249;SDS011;109;19.806;-70.704;2022-10-31T02:58:07;10.97;;;7.63;;
249;SDS011;109;19.806;-70.704;2022-10-31T03:09:59;9.97;;;7.93;;
249;SDS011;109;19.806;-70.704;2022-10-31T03:12:53;9.50;;;7.23;;
249;SDS011;109;19.806;-70.704;2022-10-31T03:15:39;10.30;;;8.23;;
249;SDS011;109;19.806;-70.704;2022-10-31T03:21:08;15.53;;;8.50;;
249;SDS011;109;19.806;-70.704;2022-10-31T03:24:00;11.63;;;8.20;;
249;SDS011;109;19.806;-70.704;2022-10-31T03:26:36;10.63;;;7.03;;
249;SDS011;109;19.806;-70.704;2022-10-31T03:29:21;9.53;;;7.47;;
249;SDS011;109;19.806;-70.704;2022-10-31T03:32:03;9.40;;;7.53;;
249;SDS011;109;19.806;-70.704;2022-10-31T03:34:59;12.00;;;7.20;;
249;SDS011;109;19.806;-70.704;2022-10-31T03:37:42;13.23;;;7.40;;
249;SDS011;109;19.806;-70.704;2022-10-31T03:40:12;10.43;;;6.67;;
249;SDS011;109;19.806;-70.704;2022-10-31T03:43:00;10.13;;;7.03;;
249;SDS011;109;19.806;-70.704;2022-10-31T03:45:41;9.50;;;7.43;;
249;SDS011;109;19.806;-70.704;2022-10-31T03:48:23;9.23;;;7.07;;
249;SDS011;109;19.806;-70.704;2022-10-31T03:53:45;8.67;;;6.20;;
249;SDS011;109;19.806;-70.704;2022-10-31T03:56:34;9.50;;;7.37;;
249;SDS011;109;19.806;-70.704;2022-10-31T03:59:25;10.00;;;6.53;;
249;SDS011;109;19.806;-70.704;2022-10-31T04:02:14;12.10;;;6.93;;
249;SDS011;109;19.806;-70.704;2022-10-31T04:04:49;9.30;;;5.90;;
249;SDS011;109;19.806;-70.704;2022-10-31T04:07:33;15.40;;;7.30;;
249;SDS011;109;19.806;-70.704;2022-10-31T04:10:11;9.43;;;6.47;;
249;SDS011;109;19.806;-70.704;2022-10-31T04:12:59;8.83;;;6.80;;
249;SDS011;109;19.806;-70.704;2022-10-31T04:15:49;11.40;;;6.43;;
249;SDS011;109;19.806;-70.704;2022-10-31T04:18:32;13.47;;;6.40;;
249;SDS011;109;19.806;-70.704;2022-10-31T04:21:06;10.13;;;6.60;;
249;SDS011;109;19.806;-70.704;2022-10-31T04:23:55;7.70;;;5.77;;
249;SDS011;109;19.806;-70.704;2022-10-31T04:26:29;7.90;;;5.67;;
249;SDS011;109;19.806;-70.704;2022-10-31T04:29:10;10.37;;;5.00;;
249;SDS011;109;19.806;-70.704;2022-10-31T04:31:37;11.13;;;5.37;;
249;SDS011;109;19.806;-70.704;2022-10-31T04:34:17;11.43;;;6.00;;
249;SDS011;109;19.806;-70.704;2022-10-31T04:36:43;11.20;;;5.63;;
249;SDS011;109;19.806;-70.704;2022-10-31T04:39:23;8.90;;;5.67;;
249;SDS011;109;19.806;-70.704;2022-10-31T04:42:10;7.13;;;5.90;;
249;SDS011;109;19.806;-70.704;2022-10-31T04:44:58;12.30;;;5.80;;
249;SDS011;109;19.806;-70.704;2022-10-31T04:47:39;10.17;;;5.20;;
249;SDS011;109;19.806;-70.704;2022-10-31T04:50:06;12.97;;;6.00;;
249;SDS011;109;19.806;-70.704;2022-10-31T04:52:46;12.57;;;5.67;;
249;SDS011;109;19.806;-70.704;2022-10-31T04:55:16;14.47;;;5.63;;
249;SDS011;109;19.806;-70.704;2022-10-31T04:58:29;10.10;;;5.23;;
249;SDS011;109;19.806;-70.704;2022-10-31T05:01:07;12.20;;;4.77;;
249;SDS011;109;19.806;-70.704;2022-10-31T05:03:48;5.60;;;5.30;;
249;SDS011;109;19.806;-70.704;2022-10-31T05:06:15;11.33;;;5.30;;
249;SDS011;109;19.806;-70.704;2022-10-31T05:08:56;14.87;;;5.30;;
249;SDS011;109;19.806;-70.704;2022-10-31T05:11:22;10.73;;;5.20;;
249;SDS011;109;19.806;-70.704;2022-10-31T05:14:23;11.60;;;5.00;;
249;SDS011;109;19.806;-70.704;2022-10-31T05:17:15;11.87;;;4.60;;
249;SDS011;109;19.806;-70.704;2022-10-31T05:20:18;10.33;;;4.63;;
249;SDS011;109;19.806;-70.704;2022-10-31T05:23:21;12.17;;;4.90;;
249;SDS011;109;19.806;-70.704;2022-10-31T05:25:54;11.47;;;5.03;;
249;SDS011;109;19.806;-70.704;2022-10-31T05:28:36;12.07;;;4.33;;
249;SDS011;109;19.806;-70.704;2022-10-31T05:31:03;7.90;;;4.40;;
249;SDS011;109;19.806;-70.704;2022-10-31T05:33:44;12.47;;;4.47;;
249;SDS011;109;19.806;-70.704;2022-10-31T05:36:36;9.10;;;4.70;;
249;SDS011;109;19.806;-70.704;2022-10-31T05:39:18;10.67;;;4.80;;
249;SDS011;109;19.806;-70.704;2022-10-31T05:41:50;15.60;;;5.37;;
249;SDS011;109;19.806;-70.704;2022-10-31T05:44:30;10.90;;;4.60;;
249;SDS011;109;19.806;-70.704;2022-10-31T05:47:10;12.93;;;5.00;;
249;SDS011;109;19.806;-70.704;2022-10-31T05:50:09;30.43;;;6.40;;
249;SDS011;109;19.806;-70.704;2022-10-31T05:53:04;23.50;;;5.27;;
249;SDS011;109;19.806;-70.704;2022-10-31T05:55:39;21.33;;;6.10;;
249;SDS011;109;19.806;-70.704;2022-10-31T05:58:21;13.20;;;5.40;;
249;SDS011;109;19.806;-70.704;2022-10-31T06:01:00;11.90;;;5.70;;
249;SDS011;109;19.806;-70.704;2022-10-31T06:03:39;13.47;;;4.50;;
249;SDS011;109;19.806;-70.704;2022-10-31T06:06:08;19.67;;;5.03;;
249;SDS011;109;19.806;-70.704;2022-10-31T06:08:49;6.57;;;4.60;;
249;SDS011;109;19.806;-70.704;2022-10-31T06:11:19;12.87;;;4.30;;
249;SDS011;109;19.806;-70.704;2022-10-31T06:14:02;14.23;;;4.60;;
249;SDS011;109;19.806;-70.704;2022-10-31T06:16:51;8.73;;;4.40;;
249;SDS011;109;19.806;-70.704;2022-10-31T06:20:07;10.20;;;4.20;;
249;SDS011;109;19.806;-70.704;2022-10-31T06:23:02;11.20;;;4.37;;
249;SDS011;109;19.806;-70.704;2022-10-31T06:25:36;12.23;;;5.20;;
249;SDS011;109;19.806;-70.704;2022-10-31T06:28:17;13.10;;;4.50;;
249;SDS011;109;19.806;-70.704;2022-10-31T06:31:00;18.20;;;4.60;;
249;SDS011;109;19.806;-70.704;2022-10-31T06:33:41;12.87;;;4.50;;
249;SDS011;109;19.806;-70.704;2022-10-31T06:36:09;11.77;;;4.67;;
249;SDS011;109;19.806;-70.704;2022-10-31T06:38:48;12.37;;;5.87;;
249;SDS011;109;19.806;-70.704;2022-10-31T06:41:19;11.73;;;6.50;;
249;SDS011;109;19.806;-70.704;2022-10-31T06:44:00;12.60;;;6.50;;
249;SDS011;109;19.806;-70.704;2022-10-31T06:46:46;12.07;;;5.23;;
249;SDS011;109;19.806;-70.704;2022-10-31T06:49:52;9.87;;;4.80;;
249;SDS011;109;19.806;-70.704;2022-10-31T06:52:31;12.53;;;4.30;;
249;SDS011;109;19.806;-70.704;2022-10-31T06:54:58;12.50;;;3.57;;
249;SDS011;109;19.806;-70.704;2022-10-31T06:57:37;6.63;;;3.50;;
249;SDS011;109;19.806;-70.704;2022-10-31T07:00:04;5.23;;;3.33;;
249;SDS011;109;19.806;-70.704;2022-10-31T07:02:56;6.03;;;3.73;;
249;SDS011;109;19.806;-70.704;2022-10-31T07:05:30;19.97;;;5.20;;
249;SDS011;109;19.806;-70.704;2022-10-31T07:08:11;10.90;;;4.13;;
249;SDS011;109;19.806;-70.704;2022-10-31T07:10:50;7.83;;;3.67;;
249;SDS011;109;19.806;-70.704;2022-10-31T07:13:35;7.57;;;3.80;;
249;SDS011;109;19.806;-70.704;2022-10-31T07:16:06;12.97;;;4.80;;
249;SDS011;109;19.806;-70.704;2022-10-31T07:18:48;10.07;;;4.80;;
249;SDS011;109;19.806;-70.704;2022-10-31T07:21:14;7.83;;;4.87;;
249;SDS011;109;19.806;-70.704;2022-10-31T07:24:01;14.70;;;4.60;;
249;SDS011;109;19.806;-70.704;2022-10-31T07:26:40;11.43;;;4.60;;
249;SDS011;109;19.806;-70.704;2022-10-31T07:29:20;13.73;;;4.87;;
249;SDS011;109;19.806;-70.704;2022-10-31T07:31:49;10.67;;;4.40;;
249;SDS011;109;19.806;-70.704;2022-10-31T07:34:31;12.03;;;4.67;;
249;SDS011;109;19.806;-70.704;2022-10-31T07:37:20;14.10;;;4.97;;
249;SDS011;109;19.806;-70.704;2022-10-31T07:39:54;11.13;;;4.50;;
249;SDS011;109;19.806;-70.704;2022-10-31T07:42:40;9.90;;;4.23;;
249;SDS011;109;19.806;-70.704;2022-10-31T07:45:34;14.30;;;4.70;;
249;SDS011;109;19.806;-70.704;2022-10-31T07:48:47;23.17;;;6.27;;
249;SDS011;109;19.806;-70.704;2022-10-31T07:51:38;10.13;;;4.13;;
249;SDS011;109;19.806;-70.704;2022-10-31T07:54:37;10.87;;;4.20;;
249;SDS011;109;19.806;-70.704;2022-10-31T07:57:29;14.63;;;4.10;;
249;SDS011;109;19.806;-70.704;2022-10-31T08:00:05;10.30;;;4.00;;
249;SDS011;109;19.806;-70.704;2022-10-31T08:02:56;8.27;;;4.27;;
249;SDS011;109;19.806;-70.704;2022-10-31T08:05:48;8.97;;;4.20;;
249;SDS011;109;19.806;-70.704;2022-10-31T08:08:57;8.67;;;4.40;;
249;SDS011;109;19.806;-70.704;2022-10-31T08:11:31;18.10;;;4.40;;
249;SDS011;109;19.806;-70.704;2022-10-31T08:14:11;13.73;;;4.07;;
249;SDS011;109;19.806;-70.704;2022-10-31T08:16:38;7.70;;;4.10;;
249;SDS011;109;19.806;-70.704;2022-10-31T08:19:17;15.17;;;3.97;;
249;SDS011;109;19.806;-70.704;2022-10-31T08:21:44;10.60;;;4.03;;
249;SDS011;109;19.806;-70.704;2022-10-31T08:24:32;16.77;;;4.87;;
249;SDS011;109;19.806;-70.704;2022-10-31T08:27:11;6.47;;;3.70;;
249;SDS011;109;19.806;-70.704;2022-10-31T08:29:38;11.17;;;4.40;;
249;SDS011;109;19.806;-70.704;2022-10-31T08:32:18;15.10;;;4.43;;
249;SDS011;109;19.806;-70.704;2022-10-31T08:34:57;7.87;;;4.63;;
249;SDS011;109;19.806;-70.704;2022-10-31T08:37:44;11.27;;;4.17;;
249;SDS011;109;19.806;-70.704;2022-10-31T08:40:16;9.77;;;4.27;;
249;SDS011;109;19.806;-70.704;2022-10-31T08:42:57;17.40;;;4.23;;
249;SDS011;109;19.806;-70.704;2022-10-31T08:45:24;8.30;;;4.50;;
249;SDS011;109;19.806;-70.704;2022-10-31T08:48:12;6.33;;;3.93;;
249;SDS011;109;19.806;-70.704;2022-10-31T08:50:47;7.40;;;4.17;;
249;SDS011;109;19.806;-70.704;2022-10-31T08:53:28;8.50;;;3.73;;
249;SDS011;109;19.806;-70.704;2022-10-31T08:56:15;7.73;;;3.60;;
249;SDS011;109;19.806;-70.704;2022-10-31T08:58:55;11.67;;;3.40;;
249;SDS011;109;19.806;-70.704;2022-10-31T09:01:32;10.73;;;3.30;;
249;SDS011;109;19.806;-70.704;2022-10-31T09:04:13;8.57;;;3.50;;
249;SDS011;109;19.806;-70.704;2022-10-31T09:06:56;12.87;;;3.50;;
249;SDS011;109;19.806;-70.704;2022-10-31T09:09:22;10.40;;;3.33;;
249;SDS011;109;19.806;-70.704;2022-10-31T09:12:02;10.37;;;3.10;;
249;SDS011;109;19.806;-70.704;2022-10-31T09:14:47;7.40;;;3.97;;
249;SDS011;109;19.806;-70.704;2022-10-31T09:17:33;14.10;;;3.40;;
249;SDS011;109;19.806;-70.704;2022-10-31T09:20:39;14.80;;;4.23;;
249;SDS011;109;19.806;-70.704;2022-10-31T09:23:28;7.33;;;3.13;;
249;SDS011;109;19.806;-70.704;2022-10-31T09:26:16;12.07;;;4.07;;
249;SDS011;109;19.806;-70.704;2022-10-31T09:29:03;6.90;;;3.20;;
249;SDS011;109;19.806;-70.704;2022-10-31T09:31:44;4.13;;;3.20;;
249;SDS011;109;19.806;-70.704;2022-10-31T09:34:25;7.67;;;3.03;;
249;SDS011;109;19.806;-70.704;2022-10-31T09:37:08;10.67;;;3.60;;
249;SDS011;109;19.806;-70.704;2022-10-31T09:39:42;9.10;;;3.23;;
249;SDS011;109;19.806;-70.704;2022-10-31T09:45:22;6.83;;;3.40;;
249;SDS011;109;19.806;-70.704;2022-10-31T09:51:42;10.17;;;3.87;;
249;SDS011;109;19.806;-70.704;2022-10-31T09:54:32;5.97;;;3.63;;
249;SDS011;109;19.806;-70.704;2022-10-31T09:57:35;10.67;;;3.80;;
249;SDS011;109;19.806;-70.704;2022-10-31T10:00:04;6.03;;;3.60;;
249;SDS011;109;19.806;-70.704;2022-10-31T10:02:59;7.40;;;3.47;;
249;SDS011;109;19.806;-70.704;2022-10-31T10:05:51;7.90;;;3.57;;
249;SDS011;109;19.806;-70.704;2022-10-31T10:08:57;7.67;;;3.50;;
249;SDS011;109;19.806;-70.704;2022-10-31T10:24:38;11.13;;;4.43;;
249;SDS011;109;19.806;-70.704;2022-10-31T10:30:00;12.80;;;5.50;;
249;SDS011;109;19.806;-70.704;2022-10-31T10:32:51;12.27;;;4.97;;
249;SDS011;109;19.806;-70.704;2022-10-31T10:41:26;13.67;;;4.10;;
249;SDS011;109;19.806;-70.704;2022-10-31T10:43:59;19.10;;;4.57;;
249;SDS011;109;19.806;-70.704;2022-10-31T10:54:46;11.60;;;4.13;;
249;SDS011;109;19.806;-70.704;2022-10-31T11:00:14;12.23;;;4.10;;
249;SDS011;109;19.806;-70.704;2022-10-31T11:02:46;7.87;;;3.67;;
249;SDS011;109;19.806;-70.704;2022-10-31T11:05:22;8.90;;;3.90;;
249;SDS011;109;19.806;-70.704;2022-10-31T11:08:00;9.07;;;4.10;;
249;SDS011;109;19.806;-70.704;2022-10-31T11:10:26;13.27;;;4.07;;
249;SDS011;109;19.806;-70.704;2022-10-31T11:12:58;9.80;;;4.10;;
249;SDS011;109;19.806;-70.704;2022-10-31T11:15:33;7.47;;;4.20;;
249;SDS011;109;19.806;-70.704;2022-10-31T11:18:05;20.63;;;4.27;;
249;SDS011;109;19.806;-70.704;2022-10-31T11:20:32;14.43;;;4.90;;
249;SDS011;109;19.806;-70.704;2022-10-31T11:23:03;15.63;;;4.70;;
249;SDS011;109;19.806;-70.704;2022-10-31T11:25:31;6.13;;;4.03;;
249;SDS011;109;19.806;-70.704;2022-10-31T11:28:01;13.07;;;4.50;;
249;SDS011;109;19.806;-70.704;2022-10-31T11:30:30;8.30;;;4.40;;
249;SDS011;109;19.806;-70.704;2022-10-31T11:33:14;12.47;;;4.40;;
249;SDS011;109;19.806;-70.704;2022-10-31T11:35:47;7.27;;;4.00;;
249;SDS011;109;19.806;-70.704;2022-10-31T11:38:15;6.53;;;5.00;;
249;SDS011;109;19.806;-70.704;2022-10-31T11:41:05;10.40;;;6.40;;
249;SDS011;109;19.806;-70.704;2022-10-31T11:43:36;11.53;;;7.20;;
249;SDS011;109;19.806;-70.704;2022-10-31T11:46:08;10.03;;;5.50;;
249;SDS011;109;19.806;-70.704;2022-10-31T11:48:37;10.43;;;6.13;;
249;SDS011;109;19.806;-70.704;2022-10-31T11:51:04;8.40;;;4.47;;
249;SDS011;109;19.806;-70.704;2022-10-31T11:53:32;9.30;;;4.70;;
249;SDS011;109;19.806;-70.704;2022-10-31T11:56:20;9.67;;;4.37;;
249;SDS011;109;19.806;-70.704;2022-10-31T11:58:59;10.50;;;3.90;;
249;SDS011;109;19.806;-70.704;2022-10-31T12:01:30;12.33;;;4.47;;
249;SDS011;109;19.806;-70.704;2022-10-31T12:04:06;11.77;;;4.20;;
249;SDS011;109;19.806;-70.704;2022-10-31T12:06:44;8.53;;;4.50;;
249;SDS011;109;19.806;-70.704;2022-10-31T12:09:19;8.60;;;4.57;;
249;SDS011;109;19.806;-70.704;2022-10-31T12:17:36;13.60;;;4.93;;
249;SDS011;109;19.806;-70.704;2022-10-31T12:25:44;17.73;;;5.20;;
249;SDS011;109;19.806;-70.704;2022-10-31T12:36:47;15.23;;;7.10;;
249;SDS011;109;19.806;-70.704;2022-10-31T12:39:24;11.00;;;4.37;;
249;SDS011;109;19.806;-70.704;2022-10-31T12:42:58;7.13;;;3.83;;
249;SDS011;109;19.806;-70.704;2022-10-31T12:45:18;8.43;;;3.90;;
249;SDS011;109;19.806;-70.704;2022-10-31T12:50:52;7.37;;;4.30;;
249;SDS011;109;19.806;-70.704;2022-10-31T12:59:11;13.53;;;4.97;;
249;SDS011;109;19.806;-70.704;2022-10-31T13:07:44;7.93;;;5.07;;
249;SDS011;109;19.806;-70.704;2022-10-31T13:10:28;7.10;;;4.60;;
249;SDS011;109;19.806;-70.704;2022-10-31T13:13:00;10.40;;;4.50;;
249;SDS011;109;19.806;-70.704;2022-10-31T13:15:35;9.03;;;4.03;;
249;SDS011;109;19.806;-70.704;2022-10-31T13:18:15;6.37;;;3.60;;
249;SDS011;109;19.806;-70.704;2022-10-31T13:20:48;6.23;;;3.30;;
249;SDS011;109;19.806;-70.704;2022-10-31T13:25:56;9.03;;;3.90;;
249;SDS011;109;19.806;-70.704;2022-10-31T13:31:01;9.30;;;4.30;;
249;SDS011;109;19.806;-70.704;2022-10-31T13:38:54;8.47;;;3.10;;
249;SDS011;109;19.806;-70.704;2022-10-31T13:41:48;11.77;;;3.60;;
249;SDS011;109;19.806;-70.704;2022-10-31T13:46:56;8.57;;;3.27;;
249;SDS011;109;19.806;-70.704;2022-10-31T13:49:25;18.47;;;3.83;;
249;SDS011;109;19.806;-70.704;2022-10-31T13:57:29;8.70;;;3.20;;
249;SDS011;109;19.806;-70.704;2022-10-31T14:00:00;12.43;;;3.30;;
249;SDS011;109;19.806;-70.704;2022-10-31T14:02:37;9.73;;;3.57;;
249;SDS011;109;19.806;-70.704;2022-10-31T14:05:24;9.07;;;3.37;;
249;SDS011;109;19.806;-70.704;2022-10-31T14:07:55;16.27;;;3.63;;
249;SDS011;109;19.806;-70.704;2022-10-31T14:10:28;9.70;;;3.70;;
249;SDS011;109;19.806;-70.704;2022-10-31T14:13:07;6.90;;;3.13;;
249;SDS011;109;19.806;-70.704;2022-10-31T14:15:58;8.53;;;3.07;;
249;SDS011;109;19.806;-70.704;2022-10-31T14:18:39;12.13;;;3.40;;
249;SDS011;109;19.806;-70.704;2022-10-31T14:21:26;14.93;;;3.00;;
249;SDS011;109;19.806;-70.704;2022-10-31T14:27:35;13.37;;;3.40;;
249;SDS011;109;19.806;-70.704;2022-10-31T14:29:51;10.43;;;2.90;;
249;SDS011;109;19.806;-70.704;2022-10-31T14:32:21;17.60;;;3.60;;
249;SDS011;109;19.806;-70.704;2022-10-31T14:45:58;18.00;;;3.80;;
249;SDS011;109;19.806;-70.704;2022-10-31T14:53:45;17.40;;;4.23;;
249;SDS011;109;19.806;-70.704;2022-10-31T14:56:20;13.53;;;4.60;;
249;SDS011;109;19.806;-70.704;2022-10-31T14:58:52;29.13;;;5.80;;
249;SDS011;109;19.806;-70.704;2022-10-31T15:06:41;19.33;;;5.00;;
249;SDS011;109;19.806;-70.704;2022-10-31T15:09:20;17.07;;;4.40;;
249;SDS011;109;19.806;-70.704;2022-10-31T15:11:58;15.37;;;3.90;;
249;SDS011;109;19.806;-70.704;2022-10-31T15:14:26;17.57;;;4.10;;
249;SDS011;109;19.806;-70.704;2022-10-31T15:16:58;14.70;;;3.83;;
249;SDS011;109;19.806;-70.704;2022-10-31T15:19:29;21.17;;;4.00;;
249;SDS011;109;19.806;-70.704;2022-10-31T15:21:59;16.87;;;4.03;;
249;SDS011;109;19.806;-70.704;2022-10-31T15:24:31;23.97;;;3.93;;
249;SDS011;109;19.806;-70.704;2022-10-31T15:27:03;18.30;;;4.30;;
249;SDS011;109;19.806;-70.704;2022-10-31T15:29:29;11.47;;;3.63;;
249;SDS011;109;19.806;-70.704;2022-10-31T15:31:58;21.60;;;5.50;;
249;SDS011;109;19.806;-70.704;2022-10-31T15:34:42;28.93;;;5.53;;
249;SDS011;109;19.806;-70.704;2022-10-31T15:37:13;22.93;;;4.27;;
249;SDS011;109;19.806;-70.704;2022-10-31T15:39:42;36.10;;;7.07;;
249;SDS011;109;19.806;-70.704;2022-10-31T15:44:52;17.00;;;3.80;;
249;SDS011;109;19.806;-70.704;2022-10-31T15:47:31;14.90;;;4.70;;
249;SDS011;109;19.806;-70.704;2022-10-31T15:49:59;22.73;;;4.20;;
249;SDS011;109;19.806;-70.704;2022-10-31T15:55:03;19.20;;;4.37;;
249;SDS011;109;19.806;-70.704;2022-10-31T15:57:51;19.87;;;4.87;;
249;SDS011;109;19.806;-70.704;2022-10-31T16:00:22;33.00;;;5.27;;
249;SDS011;109;19.806;-70.704;2022-10-31T16:03:00;15.97;;;4.13;;
249;SDS011;109;19.806;-70.704;2022-10-31T16:05:34;24.43;;;4.83;;
249;SDS011;109;19.806;-70.704;2022-10-31T16:10:51;12.70;;;4.40;;
249;SDS011;109;19.806;-70.704;2022-10-31T16:13:20;22.40;;;4.60;;
249;SDS011;109;19.806;-70.704;2022-10-31T16:15:53;24.93;;;6.20;;
249;SDS011;109;19.806;-70.704;2022-10-31T16:18:23;18.43;;;3.70;;
249;SDS011;109;19.806;-70.704;2022-10-31T16:20:53;25.33;;;5.00;;
249;SDS011;109;19.806;-70.704;2022-10-31T16:23:21;18.13;;;4.40;;
249;SDS011;109;19.806;-70.704;2022-10-31T16:25:50;22.37;;;6.00;;
249;SDS011;109;19.806;-70.704;2022-10-31T16:28:18;14.10;;;3.87;;
249;SDS011;109;19.806;-70.704;2022-10-31T16:30:54;24.93;;;5.43;;
249;SDS011;109;19.806;-70.704;2022-10-31T16:35:54;20.00;;;4.37;;
249;SDS011;109;19.806;-70.704;2022-10-31T16:38:22;24.87;;;5.57;;
249;SDS011;109;19.806;-70.704;2022-10-31T16:40:49;24.33;;;4.50;;
249;SDS011;109;19.806;-70.704;2022-10-31T16:43:18;19.37;;;3.80;;
249;SDS011;109;19.806;-70.704;2022-10-31T16:45:46;33.33;;;5.97;;
249;SDS011;109;19.806;-70.704;2022-10-31T16:48:23;15.67;;;4.17;;
249;SDS011;109;19.806;-70.704;2022-10-31T16:50:50;34.23;;;5.13;;
249;SDS011;109;19.806;-70.704;2022-10-31T16:53:18;20.20;;;4.67;;
249;SDS011;109;19.806;-70.704;2022-10-31T16:55:46;25.83;;;4.73;;
249;SDS011;109;19.806;-70.704;2022-10-31T16:58:20;18.27;;;4.97;;
249;SDS011;109;19.806;-70.704;2022-10-31T17:00:50;12.73;;;3.73;;
249;SDS011;109;19.806;-70.704;2022-10-31T17:03:18;22.67;;;4.77;;
249;SDS011;109;19.806;-70.704;2022-10-31T17:05:45;13.33;;;4.87;;
249;SDS011;109;19.806;-70.704;2022-10-31T17:08:12;12.10;;;3.53;;
249;SDS011;109;19.806;-70.704;2022-10-31T17:10:40;13.43;;;4.17;;
249;SDS011;109;19.806;-70.704;2022-10-31T17:13:11;22.60;;;4.40;;
249;SDS011;109;19.806;-70.704;2022-10-31T17:15:42;22.50;;;5.03;;
249;SDS011;109;19.806;-70.704;2022-10-31T17:18:14;22.17;;;4.90;;
249;SDS011;109;19.806;-70.704;2022-10-31T17:20:42;26.47;;;4.87;;
249;SDS011;109;19.806;-70.704;2022-10-31T17:23:10;37.53;;;5.37;;
249;SDS011;109;19.806;-70.704;2022-10-31T17:25:38;22.70;;;5.00;;
249;SDS011;109;19.806;-70.704;2022-10-31T17:28:05;27.00;;;4.90;;
249;SDS011;109;19.806;-70.704;2022-10-31T17:30:32;22.80;;;5.13;;
249;SDS011;109;19.806;-70.704;2022-10-31T17:33:01;35.47;;;5.70;;
249;SDS011;109;19.806;-70.704;2022-10-31T17:35:27;15.00;;;5.77;;
249;SDS011;109;19.806;-70.704;2022-10-31T17:37:54;18.60;;;4.50;;
249;SDS011;109;19.806;-70.704;2022-10-31T17:40:20;20.43;;;4.70;;
249;SDS011;109;19.806;-70.704;2022-10-31T17:42:54;19.73;;;4.13;;
249;SDS011;109;19.806;-70.704;2022-10-31T17:45:22;24.87;;;5.23;;
249;SDS011;109;19.806;-70.704;2022-10-31T17:47:51;29.50;;;4.67;;
249;SDS011;109;19.806;-70.704;2022-10-31T17:50:19;12.33;;;4.17;;
249;SDS011;109;19.806;-70.704;2022-10-31T17:52:48;37.73;;;6.10;;
249;SDS011;109;19.806;-70.704;2022-10-31T17:55:15;27.47;;;5.50;;
249;SDS011;109;19.806;-70.704;2022-10-31T17:57:41;29.10;;;6.27;;
249;SDS011;109;19.806;-70.704;2022-10-31T18:00:11;20.57;;;4.20;;
249;SDS011;109;19.806;-70.704;2022-10-31T18:02:39;20.30;;;4.23;;
249;SDS011;109;19.806;-70.704;2022-10-31T18:05:06;21.57;;;4.33;;
249;SDS011;109;19.806;-70.704;2022-10-31T18:07:33;18.10;;;4.23;;
249;SDS011;109;19.806;-70.704;2022-10-31T18:10:00;23.70;;;4.77;;
249;SDS011;109;19.806;-70.704;2022-10-31T18:12:27;29.33;;;5.70;;
249;SDS011;109;19.806;-70.704;2022-10-31T18:14:53;17.57;;;4.20;;
249;SDS011;109;19.806;-70.704;2022-10-31T18:17:20;16.93;;;5.37;;
249;SDS011;109;19.806;-70.704;2022-10-31T18:19:46;22.23;;;4.83;;
249;SDS011;109;19.806;-70.704;2022-10-31T18:22:13;18.33;;;4.30;;
249;SDS011;109;19.806;-70.704;2022-10-31T18:24:39;16.70;;;4.30;;
249;SDS011;109;19.806;-70.704;2022-10-31T18:27:06;14.80;;;3.80;;
249;SDS011;109;19.806;-70.704;2022-10-31T18:29:33;20.40;;;4.03;;
249;SDS011;109;19.806;-70.704;2022-10-31T18:31:59;15.33;;;4.43;;
249;SDS011;109;19.806;-70.704;2022-10-31T18:34:25;16.23;;;3.87;;
249;SDS011;109;19.806;-70.704;2022-10-31T18:36:52;17.10;;;3.60;;
249;SDS011;109;19.806;-70.704;2022-10-31T18:39:18;35.47;;;4.97;;
249;SDS011;109;19.806;-70.704;2022-10-31T18:41:45;15.20;;;4.10;;